Shenandoah National Park, VA

12:11 AM EDT op 02 september 2014 (GMT -0400)
Battle Ridge | Change Station
CLOSE
Current Station
Persoonlijk weerstation
Location: Remington, VA
Geometrische hoogte: 283 ft
Nabije weerstations

Hoogte 283 ft 38.54 °N, 77.80 °W | Updated 12 seconds ago

Helder
Helder
76.5 °F
Voelt als 77 °F
N
0.0
Wind Variabel Wind van zuid
Gusts 2.0 mijl/u

Vandaag
Hoog -- | Laag -- °F
--% Kans op neerslag
Gisteren
Hoog -- | Laag -- °F
Precip. -- inches
6:41 AM 7:40 PM
Wassende halvemaan, 47% visible
Druk 30.02 inches
Zicht 10.0 mijlen
Wolken Helder
Warmteindex 77 °F
Dauwpunt 72 °F
Vochtigheid 87%
Neerslag 0.00 inches
Dikte sneeuw Niet beschikbaar.
UV 0 van de 12
Pollen 7.30 van de 12
Luchtkwaliteit Niet beschikbaar.
Flu Activity Niet beschikbaar.
METAR KOMH 020355Z AUTO 25004KT 10SM CLR 23/21 A3002 RMK AO2

More Conditions Fewer Conditions

Druk 30.02 inches
Zicht 10.0 mijlen
Wolken Helder
Warmteindex 77 °F
Dauwpunt 72 °F
Vochtigheid 87%
Neerslag 0.00 inches
Dikte sneeuw Niet beschikbaar.
UV 0 van de 12
Pollen 7.30 van de 12
Luchtkwaliteit Niet beschikbaar.
Flu Activity Niet beschikbaar.
METAR KOMH 020355Z AUTO 25004KT 10SM CLR 23/21 A3002 RMK AO2

More Conditions Fewer Conditions

10-Day Weather Forecast

Almanac

Astronomie

Sep. 02, 2014 Opkomst Ondergang
Werkelijke tijd 6:41 AM EDT 7:40 PM EDT
Burgerlijke schemering 6:14 AM EDT 8:07 PM EDT
Nautische schemering 5:42 AM EDT 8:39 PM EDT
Astronomische schemering 5:09 AM EDT 9:12 PM EDT
Maan 2:19 PM EDT Geen maanondergang
Golflengte van het zichtbare licht 13h 52m
Daglengte
12h 58m
Tomorrow will be 2m 24s shorter.
Wassende halvemaan, 47% of the Moon is Illuminated
Vandaag
Wassende halvemaan
sep 2
Eerste kwartier
sep 8
Volle maan
sep 15
Laatste kwartier
sep 24
Nieuw

Extremen gisteren

State Highs State Lows

Community

WunderPhotos

Upload Photos

1,749,560 foto’s ge-upload!

WunderBlogs® & News

Nearby

Dikte sneeuw

Station Depth Geometrische hoogte
Er is geen verse sneeuw gerapporteerd.

Aardbevingen

Stad Distance Mag. Time & Date
No recent earthquake activity has been reported nearby.
Minimum magnitude displayed is 2.5.

Watertemperatuur langs de kust

Plaats Temperatuur
Geen meldingen van stations

Nabije weerstations